Time;durP1;ratioP1;P1;durP2;ratioP2;P2;SDS_P1;SDS_P2;PMS_P1;PMS_P2;Temp;Humidity;BMP_temperature;BMP_pressure;BME280_temperature;BME280_humidity;BME280_pressure;Samples;Min_cycle;Max_cycle;Signal;HPM_P1;HPM_P2
2022/08/30 00:01:01;;;;;;;4.75;4.25;;;;;;;17.38;62.48;101435.84;680086;29;1855;-93
2022/08/30 00:01:08;;;;;;;4.40;3.83;;;;;;;17.53;62.25;101452.72;681432;29;1658;-92
2022/08/30 00:01:32;;;;;;;4.53;4.00;;;;;;;17.46;62.14;101448.22;683893;28;1099;-92
2022/08/30 00:01:55;;;;;;;4.30;3.90;;;;;;;17.43;62.20;101438.53;683983;28;1296;-93
2022/08/30 00:02:19;;;;;;;5.03;3.90;;;;;;;17.46;62.13;101449.09;678513;29;1342;-93
2022/08/30 00:02:40;;;;;;;6.80;3.85;;;;;;;17.43;62.22;101435.88;684044;28;1146;-92
2022/08/30 00:03:01;;;;;;;7.43;4.00;;;;;;;17.52;62.23;101456.22;683801;28;1053;-93
2022/08/30 00:03:22;;;;;;;5.55;3.97;;;;;;;17.54;62.19;101457.13;680320;29;1605;-93
2022/08/30 00:03:45;;;;;;;6.25;4.38;;;;;;;17.51;62.14;101457.06;675841;29;1903;-92
2022/08/30 00:04:07;;;;;;;5.68;4.22;;;;;;;17.48;62.30;101450.03;683881;28;1990;-93
2022/08/30 00:04:27;;;;;;;6.30;4.20;;;;;;;17.54;62.25;101460.63;686539;28;1198;-93
2022/08/30 00:04:48;;;;;;;6.30;4.30;;;;;;;17.49;61.96;101450.88;686586;28;1178;-93
2022/08/30 00:05:09;;;;;;;6.25;4.25;;;;;;;17.50;62.11;101450.91;683925;28;1984;-91
2022/08/30 00:05:30;;;;;;;4.82;4.28;;;;;;;17.53;62.12;101453.56;683738;28;1139;-93
2022/08/30 00:05:51;;;;;;;4.70;4.20;;;;;;;17.45;62.08;101434.16;680793;29;1311;-93
2022/08/30 00:06:14;;;;;;;5.40;4.30;;;;;;;17.54;62.07;101463.25;683442;29;1719;-92
2022/08/30 00:06:34;;;;;;;5.22;4.20;;;;;;;17.60;62.04;101462.47;681580;29;1359;-93
2022/08/30 00:06:55;;;;;;;5.50;4.20;;;;;;;17.54;62.18;101447.44;678975;29;1010;-93
2022/08/30 00:07:16;;;;;;;4.75;4.15;;;;;;;17.57;61.95;101450.97;678634;29;1378;-92
2022/08/30 00:07:37;;;;;;;4.53;4.10;;;;;;;17.46;61.95;101446.47;683754;29;1150;-93
2022/08/30 00:07:58;;;;;;;4.57;4.18;;;;;;;17.36;62.25;101447.25;676636;29;1238;-93
2022/08/30 00:08:19;;;;;;;4.55;4.15;;;;;;;17.35;62.54;101453.41;676054;29;1168;-93
2022/08/30 00:08:42;;;;;;;4.60;4.20;;;;;;;17.36;62.60;101445.50;683860;29;1403;-93
2022/08/30 00:09:03;;;;;;;4.70;4.20;;;;;;;17.39;62.39;101436.72;686322;28;1572;-93
2022/08/30 00:09:24;;;;;;;4.78;4.15;;;;;;;17.32;62.52;101448.09;675955;29;1291;-93
2022/08/30 00:09:44;;;;;;;4.20;3.80;;;;;;;17.26;62.77;101438.34;678690;29;1259;-93
2022/08/30 00:10:05;;;;;;;4.50;3.67;;;;;;;17.37;62.65;101451.66;683683;29;1260;-93
2022/08/30 00:10:28;;;;;;;4.50;3.70;;;;;;;17.45;62.43;101451.75;672994;29;1372;-93
2022/08/30 00:10:50;;;;;;;9.88;3.83;;;;;;;17.54;62.28;101460.63;683637;29;1274;-93
2022/08/30 00:11:14;;;;;;;9.77;3.95;;;;;;;17.52;62.17;101453.59;685422;28;1252;-92
2022/08/30 00:11:35;;;;;;;10.35;4.03;;;;;;;17.53;62.09;101458.84;678303;29;1283;-93
2022/08/30 00:11:56;;;;;;;5.25;4.00;;;;;;;17.54;62.11;101455.34;680973;29;1604;-93
2022/08/30 00:12:17;;;;;;;5.40;4.10;;;;;;;17.59;62.05;101458.06;678862;29;1263;-93
2022/08/30 00:12:38;;;;;;;5.90;4.30;;;;;;;17.56;62.02;101446.59;680715;29;1179;-93
2022/08/30 00:12:59;;;;;;;6.70;4.20;;;;;;;17.57;61.85;101448.34;675627;29;1220;-93
2022/08/30 00:13:22;;;;;;;6.30;3.90;;;;;;;17.58;62.03;101450.13;681298;29;1132;-92
2022/08/30 00:13:45;;;;;;;4.18;3.78;;;;;;;17.55;61.87;101450.97;686300;28;1217;-93
2022/08/30 00:14:06;;;;;;;4.20;3.80;;;;;;;17.64;61.93;101466.00;683411;28;1631;-93
2022/08/30 00:14:27;;;;;;;4.23;3.83;;;;;;;17.61;61.83;101458.03;680463;29;1284;-93
2022/08/30 00:14:48;;;;;;;4.07;3.70;;;;;;;17.48;61.79;101441.22;683529;28;1347;-93
2022/08/30 00:15:11;;;;;;;4.30;3.90;;;;;;;17.56;61.92;101451.84;685463;28;1713;-93
2022/08/30 00:15:32;;;;;;;4.65;4.10;;;;;;;17.56;62.04;101454.50;682701;29;1413;-93
2022/08/30 00:15:53;;;;;;;4.45;4.05;;;;;;;17.42;62.16;101443.78;680571;29;1576;-93
2022/08/30 00:16:18;;;;;;;4.40;4.00;;;;;;;17.45;62.29;101449.09;677865;29;1279;-93
2022/08/30 00:16:39;;;;;;;4.75;4.05;;;;;;;17.34;62.50;101447.22;683270;29;1272;-93
2022/08/30 00:17:01;;;;;;;4.75;4.18;;;;;;;17.30;62.54;101449.81;684999;28;1886;-93
2022/08/30 00:17:22;;;;;;;4.57;3.92;;;;;;;17.18;62.89;101448.78;677989;29;1815;-93
2022/08/30 00:17:43;;;;;;;4.40;3.92;;;;;;;17.26;62.90;101452.44;685986;28;1161;-93
2022/08/30 00:18:04;;;;;;;4.72;4.00;;;;;;;17.33;62.93;101460.41;683366;28;1314;-93
2022/08/30 00:18:25;;;;;;;4.20;3.80;;;;;;;17.26;62.95;101447.16;676509;29;1361;-93
2022/08/30 00:18:46;;;;;;;4.63;3.65;;;;;;;17.24;62.85;101437.44;675366;29;1345;-93
2022/08/30 00:19:07;;;;;;;4.50;3.70;;;;;;;17.31;62.94;101448.94;681390;29;1355;-92
2022/08/30 00:19:28;;;;;;;6.20;3.90;;;;;;;17.28;62.85;101451.56;675189;29;1151;-93
2022/08/30 00:19:49;;;;;;;5.20;3.90;;;;;;;17.29;63.03;101442.78;675475;29;1160;-93
2022/08/30 00:20:13;;;;;;;5.60;3.90;;;;;;;17.26;62.97;101446.25;675469;29;1300;-93
2022/08/30 00:20:35;;;;;;;4.93;4.20;;;;;;;17.31;62.98;101441.03;685539;28;1412;-92
2022/08/30 00:20:56;;;;;;;5.60;4.20;;;;;;;17.34;62.94;101451.63;683184;28;1526;-93
2022/08/30 00:21:17;;;;;;;5.20;4.15;;;;;;;17.27;62.74;101440.09;680382;29;1316;-93
2022/08/30 00:21:39;;;;;;;4.70;4.00;;;;;;;17.34;63.02;101454.28;680640;29;1079;-93
2022/08/30 00:22:00;;;;;;;4.70;3.88;;;;;;;17.40;63.02;101451.69;678931;28;1645;-93
2022/08/30 00:22:21;;;;;;;4.90;3.90;;;;;;;17.37;62.88;101446.38;672837;29;1454;-93
2022/08/30 00:22:42;;;;;;;4.50;4.00;;;;;;;17.43;62.65;101454.38;673031;29;1358;-93
2022/08/30 00:23:04;;;;;;;4.85;4.35;;;;;;;17.40;62.60;101449.06;677779;29;1897;-91
2022/08/30 00:23:25;;;;;;;5.50;4.15;;;;;;;17.44;62.53;101457.91;675336;29;1248;-93
2022/08/30 00:23:46;;;;;;;5.72;4.00;;;;;;;17.38;62.54;101450.78;677931;29;1945;-93
2022/08/30 00:24:07;;;;;;;5.70;3.65;;;;;;;17.38;62.58;101456.06;678077;29;1228;-93
2022/08/30 00:24:27;;;;;;;6.32;3.80;;;;;;;17.32;62.70;101432.28;680554;29;1162;-92
2022/08/30 00:24:48;;;;;;;7.43;4.10;;;;;;;17.40;62.66;101457.84;685895;28;1338;-92
2022/08/30 00:25:11;;;;;;;6.97;4.20;;;;;;;17.35;62.67;101448.13;684449;28;1422;-93
2022/08/30 00:25:32;;;;;;;5.60;4.05;;;;;;;17.28;62.65;101436.63;678053;29;1205;-93
2022/08/30 00:25:53;;;;;;;4.22;3.80;;;;;;;17.29;62.67;101445.41;680609;28;1936;-93
2022/08/30 00:26:14;;;;;;;4.28;3.88;;;;;;;17.24;62.81;101435.72;677913;29;1246;-93
2022/08/30 00:26:35;;;;;;;4.82;4.10;;;;;;;17.28;62.78;101447.19;682955;29;1282;-93
2022/08/30 00:26:55;;;;;;;4.70;4.03;;;;;;;17.21;62.80;101430.38;677901;29;1784;-93
2022/08/30 00:27:16;;;;;;;4.80;3.80;;;;;;;17.25;62.88;101437.47;677763;29;1229;-93
2022/08/30 00:27:38;;;;;;;4.30;3.90;;;;;;;17.19;62.91;101432.09;680624;29;1167;-93
2022/08/30 00:27:59;;;;;;;4.70;3.80;;;;;;;17.13;62.90;101432.00;683825;28;1367;-93
2022/08/30 00:28:20;;;;;;;6.38;3.70;;;;;;;17.20;63.24;101438.28;685955;28;1271;-93
2022/08/30 00:28:41;;;;;;;6.10;3.67;;;;;;;17.23;63.18;101444.47;683253;28;1320;-92
2022/08/30 00:29:02;;;;;;;5.85;3.83;;;;;;;17.20;63.06;101436.50;681888;28;2098;-93
2022/08/30 00:29:23;;;;;;;4.50;4.10;;;;;;;17.22;63.23;101444.47;681238;28;1656;-93
2022/08/30 00:29:44;;;;;;;4.40;4.00;;;;;;;17.18;62.94;101440.88;683033;29;1439;-93
2022/08/30 00:30:06;;;;;;;4.18;3.85;;;;;;;17.16;63.07;101433.81;679172;29;2092;-93
2022/08/30 00:30:26;;;;;;;4.03;3.70;;;;;;;17.14;63.16;101433.78;680478;29;1260;-93
2022/08/30 00:30:47;;;;;;;4.35;3.92;;;;;;;17.10;63.25;101429.34;683218;29;1180;-93
2022/08/30 00:31:09;;;;;;;4.90;4.10;;;;;;;17.12;63.21;101427.63;680434;29;1703;-92
2022/08/30 00:31:29;;;;;;;4.70;4.20;;;;;;;17.14;63.28;101428.50;677989;29;1349;-93
2022/08/30 00:31:50;;;;;;;4.35;3.95;;;;;;;17.17;63.24;101427.66;680816;29;1084;-93
2022/08/30 00:32:11;;;;;;;4.28;3.70;;;;;;;17.23;62.92;101436.56;681455;29;1894;-93
2022/08/30 00:32:41;;;;;;;5.03;3.97;;;;;;;17.12;63.23;101431.16;677957;29;1334;-92
2022/08/30 00:33:03;;;;;;;5.82;4.50;;;;;;;17.11;63.21;101426.72;672413;29;1602;-93
2022/08/30 00:33:24;;;;;;;4.90;4.40;;;;;;;17.16;63.23;101436.44;683983;28;1383;-93
2022/08/30 00:33:44;;;;;;;4.50;4.10;;;;;;;17.11;63.33;101425.84;680510;29;1230;-93
2022/08/30 00:34:06;;;;;;;4.40;4.00;;;;;;;17.11;63.40;101433.75;677677;29;1145;-93
2022/08/30 00:34:28;;;;;;;5.00;4.00;;;;;;;17.15;63.23;101429.41;677984;29;1310;-93
2022/08/30 00:34:51;;;;;;;5.30;4.00;;;;;;;17.13;63.33;101443.47;683404;28;1379;-92
2022/08/30 00:35:19;;;;;;;5.20;3.97;;;;;;;17.13;63.42;101439.94;677879;29;1712;-93
2022/08/30 00:35:43;;;;;;;4.38;3.80;;;;;;;17.10;63.26;101437.28;680442;28;1218;-93
2022/08/30 00:36:04;;;;;;;4.18;3.78;;;;;;;17.15;63.44;101440.81;681824;28;1593;-93
2022/08/30 00:36:25;;;;;;;4.20;3.80;;;;;;;17.13;63.41;101440.81;679389;29;1254;-93
2022/08/30 00:36:47;;;;;;;4.20;3.80;;;;;;;17.12;63.44;101436.44;677961;29;1405;-94
2022/08/30 00:37:08;;;;;;;5.20;3.63;;;;;;;17.10;63.39;101432.00;682328;29;1759;-93
2022/08/30 00:37:29;;;;;;;5.60;3.90;;;;;;;17.12;63.37;101431.16;677733;29;1594;-92
2022/08/30 00:37:50;;;;;;;5.95;4.10;;;;;;;17.06;63.31;101424.91;683272;29;1480;-93
2022/08/30 00:38:14;;;;;;;4.60;4.20;;;;;;;17.11;63.26;101432.00;683015;28;1387;-92
2022/08/30 00:38:34;;;;;;;4.47;3.90;;;;;;;17.11;63.34;101439.03;677958;28;1273;-93
2022/08/30 00:38:55;;;;;;;4.43;3.90;;;;;;;17.10;63.32;101432.88;683097;28;2058;-92
2022/08/30 00:39:16;;;;;;;4.47;3.88;;;;;;;17.08;63.49;101429.34;688199;28;1339;-92
2022/08/30 00:39:36;;;;;;;4.20;3.80;;;;;;;17.05;63.41;101429.31;680577;28;1155;-93
2022/08/30 00:39:57;;;;;;;3.90;3.60;;;;;;;17.15;63.58;101440.81;682429;28;1262;-93
2022/08/30 00:40:19;;;;;;;3.85;3.45;;;;;;;17.12;63.25;101432.88;680367;29;1228;-93
2022/08/30 00:40:43;;;;;;;4.22;3.60;;;;;;;17.10;63.50;101432.88;685724;28;1298;-93
2022/08/30 00:41:05;;;;;;;4.15;3.60;;;;;;;17.08;63.42;101434.59;680529;29;1396;-93
2022/08/30 00:41:26;;;;;;;4.40;3.75;;;;;;;17.01;63.32;101419.56;675560;29;1642;-92
2022/08/30 00:41:47;;;;;;;4.20;3.80;;;;;;;17.08;63.31;101431.09;685799;28;1262;-93
2022/08/30 00:42:08;;;;;;;5.03;4.25;;;;;;;17.10;63.43;101434.63;680424;28;1581;-93
2022/08/30 00:42:29;;;;;;;6.20;4.45;;;;;;;17.02;63.41;101423.13;682934;29;1221;-93
2022/08/30 00:42:50;;;;;;;6.17;4.40;;;;;;;17.04;63.42;101421.38;680343;29;1547;-93
2022/08/30 00:43:17;;;;;;;5.22;4.15;;;;;;;16.99;63.42;101416.91;679211;29;1628;-93
2022/08/30 00:43:37;;;;;;;4.40;4.00;;;;;;;17.06;63.27;101436.34;684371;28;1914;-93
2022/08/30 00:43:58;;;;;;;4.30;3.90;;;;;;;16.97;63.51;101421.28;682927;28;2019;-93
2022/08/30 00:44:19;;;;;;;4.30;3.90;;;;;;;17.03;63.52;101436.28;682841;29;1344;-92
2022/08/30 00:44:41;;;;;;;4.38;3.97;;;;;;;17.02;63.50;101434.53;680530;29;1214;-93
2022/08/30 00:45:15;;;;;;;4.20;3.80;;;;;;;16.97;63.64;101426.56;678853;29;1206;-93
2022/08/30 00:45:37;;;;;;;4.78;3.70;;;;;;;16.93;63.53;101427.41;677843;29;1291;-93
2022/08/30 00:45:58;;;;;;;5.57;3.80;;;;;;;16.90;63.67;101422.09;680479;29;1205;-92
2022/08/30 00:46:19;;;;;;;4.38;3.70;;;;;;;16.87;64.01;101424.69;680394;29;1221;-93
2022/08/30 00:46:40;;;;;;;4.53;3.90;;;;;;;16.96;63.53;101440.63;677837;29;1403;-93
2022/08/30 00:47:02;;;;;;;4.50;4.10;;;;;;;16.81;63.89;101414.06;681359;28;1787;-93
2022/08/30 00:47:23;;;;;;;4.63;4.22;;;;;;;16.92;63.53;101430.03;682940;29;1273;-93
2022/08/30 00:47:44;;;;;;;4.68;4.28;;;;;;;16.85;63.86;101427.31;677781;29;1260;-93
2022/08/30 00:48:05;;;;;;;4.38;3.97;;;;;;;16.83;64.08;101426.41;681878;29;1469;-93
2022/08/30 00:48:26;;;;;;;4.32;3.92;;;;;;;16.71;64.15;101419.22;682593;28;1728;-93
2022/08/30 00:48:49;;;;;;;4.35;3.95;;;;;;;16.82;64.35;101431.66;677954;29;1317;-93
2022/08/30 00:49:12;;;;;;;5.57;4.00;;;;;;;16.82;64.04;101431.66;685679;28;1441;-93
2022/08/30 00:49:35;;;;;;;7.07;3.83;;;;;;;16.82;64.14;101423.75;677247;29;1348;-93
2022/08/30 00:49:56;;;;;;;6.72;3.70;;;;;;;16.81;64.12;101427.25;677914;29;1352;-92
2022/08/30 00:50:22;;;;;;;6.28;3.70;;;;;;;16.84;64.11;101424.66;682950;29;1328;-93
2022/08/30 00:50:48;;;;;;;6.13;4.05;;;;;;;16.90;63.91;101435.25;677649;29;1505;-93
2022/08/30 00:51:12;;;;;;;5.32;4.10;;;;;;;16.90;64.19;101434.41;672560;29;1145;-93
2022/08/30 00:51:34;;;;;;;4.57;4.15;;;;;;;16.90;64.14;101435.25;680417;29;1376;-92
2022/08/30 00:51:56;;;;;;;4.47;4.07;;;;;;;16.86;64.01;101429.06;680400;28;1270;-93
2022/08/30 00:52:18;;;;;;;4.40;4.00;;;;;;;16.96;63.90;101429.22;682712;29;1336;-93
2022/08/30 00:52:42;;;;;;;4.15;3.80;;;;;;;17.10;63.84;101440.78;685794;28;1346;-93
2022/08/30 00:53:05;;;;;;;4.20;3.80;;;;;;;17.15;63.56;101438.19;680268;29;1273;-93
2022/08/30 00:53:31;;;;;;;4.25;3.85;;;;;;;17.08;63.48;101424.06;677678;29;1383;-93
2022/08/30 00:53:55;;;;;;;4.72;4.00;;;;;;;17.18;63.38;101440.88;680469;29;1406;-93
2022/08/30 00:54:17;;;;;;;4.30;3.90;;;;;;;17.18;63.02;101432.97;675124;29;1225;-93
2022/08/30 00:54:40;;;;;;;4.20;3.80;;;;;;;17.13;63.28;101422.38;672722;29;1428;-94
2022/08/30 00:55:02;;;;;;;4.85;3.70;;;;;;;17.22;63.32;101432.16;683958;28;1034;-93
2022/08/30 00:55:23;;;;;;;4.55;3.47;;;;;;;17.18;63.19;101427.69;683744;28;1388;-93
2022/08/30 00:55:45;;;;;;;4.32;3.38;;;;;;;17.22;63.25;101432.16;680432;29;1187;-93
2022/08/30 00:56:07;;;;;;;4.10;3.53;;;;;;;17.14;63.42;101433.78;678913;29;1352;-93
2022/08/30 00:56:31;;;;;;;4.53;3.70;;;;;;;17.11;63.60;101439.91;684383;28;1455;-93
2022/08/30 00:56:52;;;;;;;4.70;3.65;;;;;;;17.10;63.56;101432.00;688232;28;1796;-93
2022/08/30 00:57:14;;;;;;;4.30;3.70;;;;;;;17.08;63.68;101433.75;677635;29;1844;-93
2022/08/30 00:57:35;;;;;;;4.07;3.70;;;;;;;17.10;63.39;101429.34;682727;29;1301;-93
2022/08/30 00:58:01;;;;;;;3.72;3.42;;;;;;;17.12;63.61;101432.88;682827;28;1357;-93
2022/08/30 00:58:32;;;;;;;4.20;3.30;;;;;;;17.09;63.41;101430.22;678605;29;1258;-93
2022/08/30 00:59:15;;;;;;;4.95;3.58;;;;;;;17.19;63.38;101449.66;680393;29;1228;-93
2022/08/30 00:59:37;;;;;;;4.80;3.65;;;;;;;17.15;63.47;101448.72;679948;29;1544;-92
2022/08/30 00:59:58;;;;;;;5.50;3.55;;;;;;;17.10;63.49;101432.00;682723;29;1300;-93
2022/08/30 01:00:22;;;;;;;5.00;3.60;;;;;;;17.18;63.35;101442.63;683035;28;1130;-93
2022/08/30 01:00:43;;;;;;;4.07;3.42;;;;;;;17.12;63.38;101435.53;691159;28;1189;-93
2022/08/30 01:01:06;;;;;;;3.95;3.55;;;;;;;17.23;63.28;101447.09;684256;28;1294;-93
2022/08/30 01:01:28;;;;;;;4.45;3.72;;;;;;;17.18;63.24;101434.72;679170;29;1376;-93
2022/08/30 01:01:49;;;;;;;4.65;3.70;;;;;;;17.17;63.30;101439.13;678016;29;1248;-93
2022/08/30 01:02:10;;;;;;;4.25;3.63;;;;;;;17.20;63.15;101431.22;682257;29;1415;-93
2022/08/30 01:02:32;;;;;;;4.05;3.67;;;;;;;17.23;63.20;101444.47;680483;29;1317;-93
2022/08/30 01:02:53;;;;;;;4.35;3.95;;;;;;;17.16;63.04;101433.81;685850;28;1201;-93
2022/08/30 01:03:15;;;;;;;5.50;3.90;;;;;;;17.20;63.07;101439.13;686658;28;1655;-93
2022/08/30 01:03:37;;;;;;;6.00;3.70;;;;;;;17.23;63.19;101449.75;682960;28;1920;-93
2022/08/30 01:03:59;;;;;;;6.25;3.80;;;;;;;17.13;63.14;101422.38;678429;29;1493;-92
2022/08/30 01:04:23;;;;;;;4.00;3.60;;;;;;;17.20;63.15;101433.00;680344;29;1236;-93
2022/08/30 01:04:45;;;;;;;4.00;3.60;;;;;;;17.19;63.13;101432.09;683159;29;1323;-92
2022/08/30 01:05:12;;;;;;;4.05;3.75;;;;;;;17.15;63.04;101424.13;685768;28;1271;-93
2022/08/30 01:05:35;;;;;;;4.38;3.97;;;;;;;17.20;63.25;101436.50;683040;28;1287;-93
2022/08/30 01:05:57;;;;;;;4.30;3.85;;;;;;;17.18;62.94;101435.59;680403;29;1543;-93
2022/08/30 01:06:18;;;;;;;5.38;3.90;;;;;;;17.12;63.11;101431.16;677728;29;1250;-93
2022/08/30 01:06:40;;;;;;;5.25;4.00;;;;;;;17.10;63.38;101426.72;680399;29;1798;-93
2022/08/30 01:07:01;;;;;;;5.38;4.10;;;;;;;17.08;63.27;101431.09;684705;28;1181;-92
2022/08/30 01:07:23;;;;;;;4.20;3.80;;;;;;;17.18;63.23;101440.88;685328;28;1353;-93
2022/08/30 01:07:43;;;;;;;4.18;3.63;;;;;;;17.19;63.12;101441.75;684260;28;1528;-93
2022/08/30 01:08:05;;;;;;;4.50;3.80;;;;;;;17.18;63.31;101446.16;682430;28;1245;-92
2022/08/30 01:08:26;;;;;;;4.50;4.00;;;;;;;17.13;63.43;101437.28;688335;28;1177;-93
2022/08/30 01:08:47;;;;;;;4.50;4.10;;;;;;;17.10;63.22;101438.13;685629;28;1206;-93
2022/08/30 01:09:08;;;;;;;4.22;3.92;;;;;;;17.13;63.35;101434.66;673160;29;1664;-93
2022/08/30 01:09:29;;;;;;;4.47;4.18;;;;;;;17.13;63.39;101442.56;680235;29;1288;-93
2022/08/30 01:09:50;;;;;;;4.57;4.13;;;;;;;17.12;63.31;101440.81;682862;29;1155;-93
2022/08/30 01:10:13;;;;;;;5.10;4.18;;;;;;;17.18;63.32;101443.50;681010;29;1850;-93
2022/08/30 01:10:35;;;;;;;4.80;3.78;;;;;;;17.13;63.30;101445.19;680251;29;1333;-93
2022/08/30 01:10:56;;;;;;;4.03;3.70;;;;;;;17.07;63.42;101431.94;682771;29;1373;-93
2022/08/30 01:11:20;;;;;;;4.40;4.00;;;;;;;17.05;63.38;101433.69;682980;28;1084;-93
2022/08/30 01:11:43;;;;;;;4.60;4.20;;;;;;;17.09;63.43;101438.13;683210;28;1283;-93
2022/08/30 01:12:05;;;;;;;4.32;3.83;;;;;;;17.09;63.21;101424.97;678872;29;1282;-93
2022/08/30 01:12:27;;;;;;;5.00;3.97;;;;;;;17.09;63.39;101432.88;680262;28;1307;-93
2022/08/30 01:12:48;;;;;;;4.40;3.70;;;;;;;17.09;63.28;101435.50;685670;28;1220;-93
2022/08/30 01:13:12;;;;;;;4.00;3.65;;;;;;;17.07;63.24;101438.13;685543;28;1269;-93
2022/08/30 01:13:34;;;;;;;3.78;3.47;;;;;;;16.98;63.50;101423.06;682914;28;1202;-92
2022/08/30 01:13:56;;;;;;;4.00;3.70;;;;;;;16.95;63.59;101423.03;677518;29;1716;-93
2022/08/30 01:14:20;;;;;;;4.05;3.70;;;;;;;17.03;63.55;101432.78;680247;29;1400;-92
2022/08/30 01:14:41;;;;;;;3.95;3.65;;;;;;;16.94;63.58;101425.66;682356;29;1270;-93
2022/08/30 01:15:04;;;;;;;3.95;3.60;;;;;;;17.04;63.47;101431.91;681504;29;1704;-93
2022/08/30 01:15:27;;;;;;;3.90;3.60;;;;;;;17.14;63.50;101444.34;679095;28;1263;-93
2022/08/30 01:15:50;;;;;;;3.92;3.60;;;;;;;17.15;63.35;101443.47;682870;29;1187;-93
2022/08/30 01:16:11;;;;;;;4.03;3.70;;;;;;;17.14;63.22;101433.78;680085;29;1744;-93
2022/08/30 01:16:33;;;;;;;5.40;3.90;;;;;;;17.08;63.13;101425.81;675296;29;1318;-93
2022/08/30 01:16:55;;;;;;;6.50;4.20;;;;;;;17.07;63.07;101426.66;677201;29;1119;-93
2022/08/30 01:17:17;;;;;;;5.55;4.10;;;;;;;17.13;63.26;101434.66;682741;29;1288;-92
2022/08/30 01:17:40;;;;;;;5.78;4.25;;;;;;;17.13;63.23;101432.00;684512;28;1303;-93
2022/08/30 01:18:02;;;;;;;5.07;4.03;;;;;;;17.14;63.15;101436.41;681215;29;1644;-93
2022/08/30 01:18:24;;;;;;;4.90;4.15;;;;;;;17.17;63.23;101443.50;680222;29;1388;-93
2022/08/30 01:18:44;;;;;;;4.50;4.10;;;;;;;17.15;63.24;101435.53;680203;29;1281;-93
2022/08/30 01:19:18;;;;;;;4.63;4.22;;;;;;;17.16;63.13;101439.09;679339;28;1356;-93
2022/08/30 01:19:46;;;;;;;4.85;4.00;;;;;;;17.06;63.09;101422.25;685544;28;1398;-93
2022/08/30 01:20:11;;;;;;;5.50;4.20;;;;;;;17.04;63.28;101427.53;683010;28;1277;-93
2022/08/30 01:20:43;;;;;;;4.60;4.10;;;;;;;17.12;63.38;101436.44;683087;29;1172;-92
2022/08/30 01:21:18;;;;;;;4.38;3.97;;;;;;;17.11;63.27;101441.66;680421;28;1109;-92
2022/08/30 01:21:45;;;;;;;4.82;4.32;;;;;;;17.02;63.41;101431.88;685651;28;1024;-93
2022/08/30 01:22:32;;;;;;;4.40;4.00;;;;;;;16.97;63.31;101423.94;685484;28;1371;-92
2022/08/30 01:22:53;;;;;;;5.28;3.60;;;;;;;17.10;63.42;101447.81;675158;29;1226;-93
2022/08/30 01:23:17;;;;;;;4.45;3.40;;;;;;;16.97;63.34;101426.56;680480;29;1210;-93
2022/08/30 01:23:41;;;;;;;4.60;3.70;;;;;;;17.13;63.38;101453.13;688344;28;1962;-93
2022/08/30 01:24:04;;;;;;;4.70;3.80;;;;;;;17.18;63.00;101450.53;677600;29;1236;-93
2022/08/30 01:24:25;;;;;;;4.85;3.90;;;;;;;17.05;62.98;101428.41;681102;29;1230;-92
2022/08/30 01:24:47;;;;;;;4.45;3.80;;;;;;;17.13;63.20;101442.56;685689;28;1294;-93
2022/08/30 01:25:10;;;;;;;4.40;4.00;;;;;;;17.13;63.26;101442.56;685509;28;1224;-93
2022/08/30 01:25:34;;;;;;;4.70;4.07;;;;;;;17.03;62.98;101422.25;677761;29;1311;-92
2022/08/30 01:25:55;;;;;;;4.47;4.05;;;;;;;17.12;63.09;101446.97;680367;29;1866;-93
2022/08/30 01:26:16;;;;;;;4.72;4.18;;;;;;;17.02;63.16;101426.63;677499;29;1255;-93
2022/08/30 01:26:38;;;;;;;4.47;4.07;;;;;;;17.05;63.17;101436.31;682916;29;1315;-92
2022/08/30 01:26:59;;;;;;;4.35;3.95;;;;;;;16.98;63.30;101422.19;681387;29;1199;-93
2022/08/30 01:27:21;;;;;;;4.40;3.77;;;;;;;17.08;63.42;101437.25;682873;28;1266;-93
2022/08/30 01:27:47;;;;;;;4.05;3.60;;;;;;;17.02;63.30;101434.53;682907;29;1248;-93
2022/08/30 01:28:13;;;;;;;3.97;3.50;;;;;;;16.95;63.39;101428.31;677257;29;1339;-93
2022/08/30 01:28:34;;;;;;;4.28;3.60;;;;;;;16.95;63.32;101430.03;683084;29;1361;-92
2022/08/30 01:29:01;;;;;;;4.20;3.80;;;;;;;16.96;63.34;101429.22;680282;29;1245;-93
2022/08/30 01:29:24;;;;;;;5.40;4.10;;;;;;;16.92;63.53;101444.09;677534;29;1306;-93
2022/08/30 01:29:46;;;;;;;4.80;3.95;;;;;;;16.85;63.85;101439.63;682524;29;1257;-93
2022/08/30 01:30:08;;;;;;;5.47;3.83;;;;;;;16.74;64.01;101428.03;679393;29;1252;-93
2022/08/30 01:30:30;;;;;;;7.15;3.85;;;;;;;16.69;64.18;101428.88;680037;29;1342;-93
2022/08/30 01:30:51;;;;;;;7.25;3.83;;;;;;;16.72;64.18;101442.06;685611;28;1261;-93
2022/08/30 01:31:13;;;;;;;5.78;3.80;;;;;;;16.64;64.34;101422.66;677568;29;2033;-92
2022/08/30 01:31:35;;;;;;;4.20;3.80;;;;;;;16.66;64.37;101430.59;685552;28;1218;-93
2022/08/30 01:31:56;;;;;;;4.30;3.90;;;;;;;16.49;64.85;101435.63;682828;28;1355;-93
2022/08/30 01:32:21;;;;;;;4.30;3.90;;;;;;;16.49;65.08;101440.88;675026;29;1074;-92
2022/08/30 01:32:46;;;;;;;4.43;4.03;;;;;;;16.43;64.85;101432.00;685483;28;1356;-93
2022/08/30 01:33:07;;;;;;;4.78;4.20;;;;;;;16.47;65.07;101439.97;685354;28;1266;-93
2022/08/30 01:33:37;;;;;;;4.60;4.00;;;;;;;16.41;65.05;101420.56;674956;29;1332;-93
2022/08/30 01:33:57;;;;;;;4.55;4.03;;;;;;;16.53;64.98;101433.03;685261;28;1755;-93
2022/08/30 01:34:18;;;;;;;4.65;4.18;;;;;;;16.60;64.82;101439.31;685345;28;1077;-93
2022/08/30 01:34:39;;;;;;;4.50;4.10;;;;;;;16.59;64.86;101440.13;674885;29;1430;-93
2022/08/30 01:35:00;;;;;;;4.47;4.05;;;;;;;16.61;64.69;101427.88;682912;28;1695;-92
2022/08/30 01:35:24;;;;;;;4.47;4.00;;;;;;;16.66;64.55;101431.44;681812;29;1545;-92
2022/08/30 01:35:52;;;;;;;4.32;3.90;;;;;;;16.66;64.63;101444.63;674975;29;1275;-93
2022/08/30 01:36:14;;;;;;;4.10;3.70;;;;;;;16.68;64.48;101440.28;682661;29;1373;-93
2022/08/30 01:36:36;;;;;;;4.15;3.75;;;;;;;16.61;64.37;101419.09;680224;29;1332;-93
2022/08/30 01:36:58;;;;;;;4.22;3.83;;;;;;;16.70;64.35;101432.38;675597;29;1551;-93
2022/08/30 01:37:24;;;;;;;5.35;4.00;;;;;;;16.64;64.36;101427.91;674674;29;1203;-93
2022/08/30 01:37:47;;;;;;;6.18;4.22;;;;;;;16.72;64.44;101435.94;680235;29;1405;-93
2022/08/30 01:38:11;;;;;;;5.68;4.28;;;;;;;16.71;64.53;101436.78;680072;29;1858;-93
2022/08/30 01:38:37;;;;;;;5.28;4.28;;;;;;;16.69;64.41;101431.50;682366;29;1273;-92
2022/08/30 01:38:58;;;;;;;4.30;3.90;;;;;;;16.66;64.48;101430.59;685549;28;1343;-93
2022/08/30 01:39:19;;;;;;;4.18;3.60;;;;;;;16.56;64.48;101434.84;674873;29;1264;-93
2022/08/30 01:39:40;;;;;;;4.18;3.70;;;;;;;16.60;64.62;101447.22;677460;29;1130;-93
2022/08/30 01:40:01;;;;;;;8.07;3.67;;;;;;;16.49;64.64;101425.06;678299;29;1375;-93
2022/08/30 01:40:22;;;;;;;8.02;3.80;;;;;;;16.61;64.70;101441.06;674913;29;1338;-93
2022/08/30 01:40:43;;;;;;;7.97;3.90;;;;;;;16.64;64.66;101432.28;685617;28;1320;-93
2022/08/30 01:41:16;;;;;;;6.00;4.20;;;;;;;16.72;64.47;101447.34;685593;28;1949;-92
2022/08/30 01:41:37;;;;;;;6.80;4.30;;;;;;;16.48;64.65;101439.13;681678;29;1318;-93
2022/08/30 01:41:59;;;;;;;5.43;4.18;;;;;;;16.53;64.76;101430.41;685628;28;1639;-93
2022/08/30 01:42:21;;;;;;;4.97;4.10;;;;;;;16.59;64.92;101450.69;679752;28;1289;-93
2022/08/30 01:42:42;;;;;;;4.40;4.00;;;;;;;16.59;64.96;101442.78;680239;29;1119;-92
2022/08/30 01:43:03;;;;;;;4.55;4.15;;;;;;;16.61;64.84;101443.69;682614;28;1548;-93
2022/08/30 01:43:25;;;;;;;4.80;4.30;;;;;;;16.50;64.92;101440.91;676570;29;1236;-93
2022/08/30 01:43:50;;;;;;;4.60;4.20;;;;;;;16.35;65.44;101444.19;685535;28;1918;-93
2022/08/30 01:44:12;;;;;;;5.20;4.15;;;;;;;16.23;65.70;101444.84;682678;28;1244;-93
2022/08/30 01:44:33;;;;;;;5.10;4.05;;;;;;;16.24;65.62;101438.75;679725;29;1316;-93
2022/08/30 01:44:54;;;;;;;5.60;4.30;;;;;;;16.25;65.81;101440.56;685369;28;1149;-93
2022/08/30 01:45:16;;;;;;;5.25;4.47;;;;;;;16.24;65.72;101443.13;677963;29;1727;-92
2022/08/30 01:45:36;;;;;;;5.90;4.43;;;;;;;16.29;65.82;101449.41;682674;28;1526;-93
2022/08/30 01:45:57;;;;;;;7.85;4.28;;;;;;;16.31;65.76;101450.28;680949;28;2150;-93
2022/08/30 01:46:22;;;;;;;6.65;3.90;;;;;;;16.17;66.08;101435.13;677362;29;1095;-93
2022/08/30 01:46:46;;;;;;;4.47;4.07;;;;;;;16.09;66.24;101439.38;680375;29;1289;-93
2022/08/30 01:47:08;;;;;;;4.50;4.10;;;;;;;16.11;66.36;101445.56;682872;29;1100;-93
2022/08/30 01:47:28;;;;;;;4.35;3.95;;;;;;;16.11;66.57;101452.59;680338;29;1119;-93